Mapleton Depot, Pennsylvania
Current Conditions -  °F | °C
As of 5:53 AM on Thursday 18 Dec 2014 (Local Time) from KAOO Reporting Station
Overcast Overcast  
Wind Chill: 15°   Ceiling: 2600
Heat Index: 27°   Visibility: 10mi
Dew Point: 19°   Wind: 15mph
Humidity: 72%   Direction: 300°WNW
Pressure: 30.08"   Gusts: 25mph
Location:  40.4°N, 77.95°W
Report Text: KAOO 181053Z AUTO 30013G22KT 10SM BKN026 OVC031 M03/M07 A3008 RMK AO2 SLP205 T10281072
Loading
Personal Weather Stations






























Interactive Weather Map New forecast layout! Learn more

10-Day Weather Forecast

Advertisements
Track Severe Weather on mobile